sensor_id;sensor_type;location;lat;lon;timestamp;P1;durP1;ratioP1;P2;durP2;ratioP2
5831;SDS011;50943;51.448;7.646;2022-08-11T00:01:21;7.07;;;2.43;;
5831;SDS011;50943;51.448;7.646;2022-08-11T00:03:51;6.13;;;2.37;;
5831;SDS011;50943;51.448;7.646;2022-08-11T00:06:23;4.03;;;2.33;;
5831;SDS011;50943;51.448;7.646;2022-08-11T00:08:51;3.53;;;2.40;;
5831;SDS011;50943;51.448;7.646;2022-08-11T00:11:18;8.17;;;3.13;;
5831;SDS011;50943;51.448;7.646;2022-08-11T00:13:47;7.27;;;3.10;;
5831;SDS011;50943;51.448;7.646;2022-08-11T00:16:16;4.63;;;2.93;;
5831;SDS011;50943;51.448;7.646;2022-08-11T00:18:44;3.47;;;2.60;;
5831;SDS011;50943;51.448;7.646;2022-08-11T00:21:12;5.63;;;3.20;;
5831;SDS011;50943;51.448;7.646;2022-08-11T00:23:40;11.47;;;3.53;;
5831;SDS011;50943;51.448;7.646;2022-08-11T00:26:08;4.50;;;2.90;;
5831;SDS011;50943;51.448;7.646;2022-08-11T00:28:35;6.33;;;3.00;;
5831;SDS011;50943;51.448;7.646;2022-08-11T00:31:05;12.10;;;3.40;;
5831;SDS011;50943;51.448;7.646;2022-08-11T00:33:36;6.03;;;3.40;;
5831;SDS011;50943;51.448;7.646;2022-08-11T00:36:03;11.00;;;3.80;;
5831;SDS011;50943;51.448;7.646;2022-08-11T00:38:33;7.93;;;3.60;;
5831;SDS011;50943;51.448;7.646;2022-08-11T00:41:03;9.10;;;4.60;;
5831;SDS011;50943;51.448;7.646;2022-08-11T00:43:43;7.03;;;3.43;;
5831;SDS011;50943;51.448;7.646;2022-08-11T00:46:20;7.20;;;3.67;;
5831;SDS011;50943;51.448;7.646;2022-08-11T00:49:00;6.03;;;3.53;;
5831;SDS011;50943;51.448;7.646;2022-08-11T00:51:39;10.60;;;4.00;;
5831;SDS011;50943;51.448;7.646;2022-08-11T00:54:15;5.60;;;3.40;;
5831;SDS011;50943;51.448;7.646;2022-08-11T00:57:13;5.23;;;3.73;;
5831;SDS011;50943;51.448;7.646;2022-08-11T00:59:47;6.70;;;3.20;;
5831;SDS011;50943;51.448;7.646;2022-08-11T01:02:41;9.50;;;3.00;;
5831;SDS011;50943;51.448;7.646;2022-08-11T01:08:35;8.50;;;3.50;;
5831;SDS011;50943;51.448;7.646;2022-08-11T01:14:29;5.10;;;3.57;;
5831;SDS011;50943;51.448;7.646;2022-08-11T01:17:46;9.10;;;3.90;;
5831;SDS011;50943;51.448;7.646;2022-08-11T01:23:58;6.90;;;3.30;;
5831;SDS011;50943;51.448;7.646;2022-08-11T01:29:54;5.10;;;3.30;;
5831;SDS011;50943;51.448;7.646;2022-08-11T01:32:44;4.70;;;3.00;;
5831;SDS011;50943;51.448;7.646;2022-08-11T01:36:04;5.20;;;3.37;;
5831;SDS011;50943;51.448;7.646;2022-08-11T01:41:52;5.27;;;3.60;;
5831;SDS011;50943;51.448;7.646;2022-08-11T01:47:33;6.53;;;4.03;;
5831;SDS011;50943;51.448;7.646;2022-08-11T01:50:20;8.83;;;3.70;;
5831;SDS011;50943;51.448;7.646;2022-08-11T01:53:00;9.00;;;3.90;;
5831;SDS011;50943;51.448;7.646;2022-08-11T01:55:32;6.47;;;3.63;;
5831;SDS011;50943;51.448;7.646;2022-08-11T01:58:07;4.20;;;3.13;;
5831;SDS011;50943;51.448;7.646;2022-08-11T02:00:44;7.40;;;3.20;;
5831;SDS011;50943;51.448;7.646;2022-08-11T02:03:17;5.50;;;3.57;;
5831;SDS011;50943;51.448;7.646;2022-08-11T02:05:51;11.60;;;3.63;;
5831;SDS011;50943;51.448;7.646;2022-08-11T02:08:30;8.20;;;3.70;;
5831;SDS011;50943;51.448;7.646;2022-08-11T02:11:04;5.10;;;3.90;;
5831;SDS011;50943;51.448;7.646;2022-08-11T02:14:09;5.43;;;4.00;;
5831;SDS011;50943;51.448;7.646;2022-08-11T02:16:50;4.57;;;3.30;;
5831;SDS011;50943;51.448;7.646;2022-08-11T02:19:23;9.00;;;3.80;;
5831;SDS011;50943;51.448;7.646;2022-08-11T02:22:12;5.90;;;4.20;;
5831;SDS011;50943;51.448;7.646;2022-08-11T02:25:00;6.90;;;3.80;;
5831;SDS011;50943;51.448;7.646;2022-08-11T02:27:33;6.00;;;3.70;;
5831;SDS011;50943;51.448;7.646;2022-08-11T02:30:06;6.27;;;3.67;;
5831;SDS011;50943;51.448;7.646;2022-08-11T02:32:35;5.83;;;3.77;;
5831;SDS011;50943;51.448;7.646;2022-08-11T02:35:23;14.33;;;4.20;;
5831;SDS011;50943;51.448;7.646;2022-08-11T02:37:54;6.67;;;4.00;;
5831;SDS011;50943;51.448;7.646;2022-08-11T02:40:33;8.63;;;4.70;;
5831;SDS011;50943;51.448;7.646;2022-08-11T02:43:06;5.87;;;4.20;;
5831;SDS011;50943;51.448;7.646;2022-08-11T02:45:40;5.97;;;3.57;;
5831;SDS011;50943;51.448;7.646;2022-08-11T02:48:16;6.07;;;4.00;;
5831;SDS011;50943;51.448;7.646;2022-08-11T02:51:13;8.83;;;3.73;;
5831;SDS011;50943;51.448;7.646;2022-08-11T02:53:43;6.27;;;4.00;;
5831;SDS011;50943;51.448;7.646;2022-08-11T02:56:18;7.57;;;4.10;;
5831;SDS011;50943;51.448;7.646;2022-08-11T02:58:48;6.63;;;4.10;;
5831;SDS011;50943;51.448;7.646;2022-08-11T03:01:37;9.00;;;4.50;;
5831;SDS011;50943;51.448;7.646;2022-08-11T03:04:07;7.07;;;3.93;;
5831;SDS011;50943;51.448;7.646;2022-08-11T03:06:38;6.80;;;4.50;;
5831;SDS011;50943;51.448;7.646;2022-08-11T03:09:09;6.03;;;4.27;;
5831;SDS011;50943;51.448;7.646;2022-08-11T03:11:51;6.83;;;3.93;;
5831;SDS011;50943;51.448;7.646;2022-08-11T03:14:41;5.10;;;3.90;;
5831;SDS011;50943;51.448;7.646;2022-08-11T03:17:33;7.00;;;4.60;;
5831;SDS011;50943;51.448;7.646;2022-08-11T03:20:07;5.50;;;4.43;;
5831;SDS011;50943;51.448;7.646;2022-08-11T03:22:46;6.27;;;4.50;;
5831;SDS011;50943;51.448;7.646;2022-08-11T03:25:18;7.40;;;4.70;;
5831;SDS011;50943;51.448;7.646;2022-08-11T03:28:01;10.67;;;5.30;;
5831;SDS011;50943;51.448;7.646;2022-08-11T03:30:34;18.60;;;5.87;;
5831;SDS011;50943;51.448;7.646;2022-08-11T03:33:14;8.30;;;4.40;;
5831;SDS011;50943;51.448;7.646;2022-08-11T03:36:09;7.33;;;4.50;;
5831;SDS011;50943;51.448;7.646;2022-08-11T03:38:48;7.20;;;3.93;;
5831;SDS011;50943;51.448;7.646;2022-08-11T03:41:25;8.90;;;5.03;;
5831;SDS011;50943;51.448;7.646;2022-08-11T03:44:13;7.77;;;4.37;;
5831;SDS011;50943;51.448;7.646;2022-08-11T03:46:53;9.00;;;4.17;;
5831;SDS011;50943;51.448;7.646;2022-08-11T03:49:28;6.47;;;4.60;;
5831;SDS011;50943;51.448;7.646;2022-08-11T03:52:04;5.90;;;3.87;;
5831;SDS011;50943;51.448;7.646;2022-08-11T03:54:40;8.63;;;4.43;;
5831;SDS011;50943;51.448;7.646;2022-08-11T04:00:24;10.10;;;4.63;;
5831;SDS011;50943;51.448;7.646;2022-08-11T04:03:07;11.00;;;4.30;;
5831;SDS011;50943;51.448;7.646;2022-08-11T04:06:08;7.40;;;5.37;;
5831;SDS011;50943;51.448;7.646;2022-08-11T04:12:06;7.67;;;4.50;;
5831;SDS011;50943;51.448;7.646;2022-08-11T04:21:08;5.40;;;4.30;;
5831;SDS011;50943;51.448;7.646;2022-08-11T04:23:55;8.80;;;4.53;;
5831;SDS011;50943;51.448;7.646;2022-08-11T04:26:47;7.67;;;4.10;;
5831;SDS011;50943;51.448;7.646;2022-08-11T04:29:34;8.13;;;4.90;;
5831;SDS011;50943;51.448;7.646;2022-08-11T04:32:09;5.07;;;4.00;;
5831;SDS011;50943;51.448;7.646;2022-08-11T04:34:56;6.90;;;4.70;;
5831;SDS011;50943;51.448;7.646;2022-08-11T04:37:54;8.97;;;4.60;;
5831;SDS011;50943;51.448;7.646;2022-08-11T04:40:47;9.20;;;4.90;;
5831;SDS011;50943;51.448;7.646;2022-08-11T04:46:32;7.60;;;4.50;;
5831;SDS011;50943;51.448;7.646;2022-08-11T04:49:27;12.87;;;4.30;;
5831;SDS011;50943;51.448;7.646;2022-08-11T04:52:33;7.33;;;3.73;;
5831;SDS011;50943;51.448;7.646;2022-08-11T04:55:31;15.10;;;5.23;;
5831;SDS011;50943;51.448;7.646;2022-08-11T04:58:24;13.50;;;5.13;;
5831;SDS011;50943;51.448;7.646;2022-08-11T05:01:23;11.67;;;4.87;;
5831;SDS011;50943;51.448;7.646;2022-08-11T05:10:37;7.50;;;5.23;;
5831;SDS011;50943;51.448;7.646;2022-08-11T05:13:21;9.03;;;4.33;;
5831;SDS011;50943;51.448;7.646;2022-08-11T05:16:10;11.20;;;5.40;;
5831;SDS011;50943;51.448;7.646;2022-08-11T05:18:56;6.43;;;4.20;;
5831;SDS011;50943;51.448;7.646;2022-08-11T05:21:41;14.67;;;4.20;;
5831;SDS011;50943;51.448;7.646;2022-08-11T05:24:29;7.60;;;4.27;;
5831;SDS011;50943;51.448;7.646;2022-08-11T05:27:17;7.17;;;3.93;;
5831;SDS011;50943;51.448;7.646;2022-08-11T05:30:03;6.93;;;3.67;;
5831;SDS011;50943;51.448;7.646;2022-08-11T05:32:53;13.07;;;4.40;;
5831;SDS011;50943;51.448;7.646;2022-08-11T05:35:40;6.80;;;3.30;;
5831;SDS011;50943;51.448;7.646;2022-08-11T05:38:10;8.63;;;3.80;;
5831;SDS011;50943;51.448;7.646;2022-08-11T05:40:57;5.80;;;3.47;;
5831;SDS011;50943;51.448;7.646;2022-08-11T05:43:43;9.30;;;3.90;;
5831;SDS011;50943;51.448;7.646;2022-08-11T05:46:28;10.93;;;4.37;;
5831;SDS011;50943;51.448;7.646;2022-08-11T05:49:12;9.10;;;4.33;;
5831;SDS011;50943;51.448;7.646;2022-08-11T05:51:57;12.37;;;3.83;;
5831;SDS011;50943;51.448;7.646;2022-08-11T05:54:42;12.23;;;4.13;;
5831;SDS011;50943;51.448;7.646;2022-08-11T05:57:27;14.17;;;3.90;;
5831;SDS011;50943;51.448;7.646;2022-08-11T05:59:59;11.33;;;4.83;;
5831;SDS011;50943;51.448;7.646;2022-08-11T06:02:27;17.47;;;4.20;;
5831;SDS011;50943;51.448;7.646;2022-08-11T06:04:54;15.83;;;4.27;;
5831;SDS011;50943;51.448;7.646;2022-08-11T06:07:25;9.30;;;4.53;;
5831;SDS011;50943;51.448;7.646;2022-08-11T06:09:54;7.70;;;4.63;;
5831;SDS011;50943;51.448;7.646;2022-08-11T06:12:22;13.40;;;4.30;;
5831;SDS011;50943;51.448;7.646;2022-08-11T06:14:53;9.07;;;4.33;;
5831;SDS011;50943;51.448;7.646;2022-08-11T06:17:22;11.60;;;3.80;;
5831;SDS011;50943;51.448;7.646;2022-08-11T06:19:49;8.73;;;4.00;;
5831;SDS011;50943;51.448;7.646;2022-08-11T06:22:18;6.77;;;4.30;;
5831;SDS011;50943;51.448;7.646;2022-08-11T06:24:50;11.90;;;4.03;;
5831;SDS011;50943;51.448;7.646;2022-08-11T06:27:18;10.00;;;4.40;;
5831;SDS011;50943;51.448;7.646;2022-08-11T06:29:46;9.10;;;3.80;;
5831;SDS011;50943;51.448;7.646;2022-08-11T06:32:15;7.93;;;4.00;;
5831;SDS011;50943;51.448;7.646;2022-08-11T06:37:39;6.60;;;3.20;;
5831;SDS011;50943;51.448;7.646;2022-08-11T06:40:13;7.23;;;4.00;;
5831;SDS011;50943;51.448;7.646;2022-08-11T06:42:48;6.33;;;3.60;;
5831;SDS011;50943;51.448;7.646;2022-08-11T06:45:25;6.37;;;3.70;;
5831;SDS011;50943;51.448;7.646;2022-08-11T06:47:53;8.90;;;3.10;;
5831;SDS011;50943;51.448;7.646;2022-08-11T06:50:25;3.83;;;3.00;;
5831;SDS011;50943;51.448;7.646;2022-08-11T06:53:10;6.30;;;3.00;;
5831;SDS011;50943;51.448;7.646;2022-08-11T06:55:39;4.80;;;3.00;;
5831;SDS011;50943;51.448;7.646;2022-08-11T06:58:25;5.33;;;3.00;;
5831;SDS011;50943;51.448;7.646;2022-08-11T07:01:12;6.40;;;3.30;;
5831;SDS011;50943;51.448;7.646;2022-08-11T07:03:42;10.03;;;3.40;;
5831;SDS011;50943;51.448;7.646;2022-08-11T07:06:17;4.60;;;3.00;;
5831;SDS011;50943;51.448;7.646;2022-08-11T07:09:05;8.60;;;3.40;;
5831;SDS011;50943;51.448;7.646;2022-08-11T07:12:17;9.30;;;3.60;;
5831;SDS011;50943;51.448;7.646;2022-08-11T07:15:22;6.63;;;3.13;;
5831;SDS011;50943;51.448;7.646;2022-08-11T07:18:10;5.47;;;2.80;;
5831;SDS011;50943;51.448;7.646;2022-08-11T07:21:06;3.33;;;2.70;;
5831;SDS011;50943;51.448;7.646;2022-08-11T07:23:53;5.23;;;3.20;;
5831;SDS011;50943;51.448;7.646;2022-08-11T07:26:39;3.90;;;2.60;;
5831;SDS011;50943;51.448;7.646;2022-08-11T07:29:25;8.37;;;2.77;;
5831;SDS011;50943;51.448;7.646;2022-08-11T07:31:52;8.00;;;3.00;;
5831;SDS011;50943;51.448;7.646;2022-08-11T07:34:20;8.70;;;3.00;;
5831;SDS011;50943;51.448;7.646;2022-08-11T07:36:50;10.10;;;2.90;;
5831;SDS011;50943;51.448;7.646;2022-08-11T07:39:20;7.47;;;2.70;;
5831;SDS011;50943;51.448;7.646;2022-08-11T07:41:48;4.60;;;2.87;;
5831;SDS011;50943;51.448;7.646;2022-08-11T07:44:16;6.00;;;2.60;;
5831;SDS011;50943;51.448;7.646;2022-08-11T07:46:45;7.63;;;3.37;;
5831;SDS011;50943;51.448;7.646;2022-08-11T07:49:33;5.60;;;2.60;;
5831;SDS011;50943;51.448;7.646;2022-08-11T07:52:18;6.03;;;2.50;;
5831;SDS011;50943;51.448;7.646;2022-08-11T07:55:00;7.23;;;2.70;;
5831;SDS011;50943;51.448;7.646;2022-08-11T07:57:29;10.17;;;3.17;;
5831;SDS011;50943;51.448;7.646;2022-08-11T08:00:14;5.37;;;2.80;;
5831;SDS011;50943;51.448;7.646;2022-08-11T08:02:59;4.30;;;2.87;;
5831;SDS011;50943;51.448;7.646;2022-08-11T08:05:44;5.60;;;2.73;;
5831;SDS011;50943;51.448;7.646;2022-08-11T08:08:28;9.80;;;2.60;;
5831;SDS011;50943;51.448;7.646;2022-08-11T08:11:14;8.03;;;2.50;;
5831;SDS011;50943;51.448;7.646;2022-08-11T08:13:59;4.33;;;2.67;;
5831;SDS011;50943;51.448;7.646;2022-08-11T08:16:44;8.13;;;2.77;;
5831;SDS011;50943;51.448;7.646;2022-08-11T08:19:28;9.00;;;2.63;;
5831;SDS011;50943;51.448;7.646;2022-08-11T08:21:56;7.07;;;2.90;;
5831;SDS011;50943;51.448;7.646;2022-08-11T08:24:23;6.50;;;2.60;;
5831;SDS011;50943;51.448;7.646;2022-08-11T08:26:51;7.40;;;2.27;;
5831;SDS011;50943;51.448;7.646;2022-08-11T08:29:24;14.50;;;2.70;;
5831;SDS011;50943;51.448;7.646;2022-08-11T08:32:10;5.40;;;2.87;;
5831;SDS011;50943;51.448;7.646;2022-08-11T08:34:37;5.83;;;2.50;;
5831;SDS011;50943;51.448;7.646;2022-08-11T08:37:05;5.97;;;2.80;;
5831;SDS011;50943;51.448;7.646;2022-08-11T08:39:32;7.13;;;2.90;;
5831;SDS011;50943;51.448;7.646;2022-08-11T08:42:03;7.27;;;2.57;;
5831;SDS011;50943;51.448;7.646;2022-08-11T08:44:33;9.40;;;2.63;;
5831;SDS011;50943;51.448;7.646;2022-08-11T08:47:00;7.20;;;2.50;;
5831;SDS011;50943;51.448;7.646;2022-08-11T08:49:30;10.10;;;4.50;;
5831;SDS011;50943;51.448;7.646;2022-08-11T08:52:00;3.97;;;2.20;;
5831;SDS011;50943;51.448;7.646;2022-08-11T08:54:29;7.38;;;2.50;;
5831;SDS011;50943;51.448;7.646;2022-08-11T08:56:59;6.93;;;2.50;;
5831;SDS011;50943;51.448;7.646;2022-08-11T08:59:31;11.13;;;2.90;;
5831;SDS011;50943;51.448;7.646;2022-08-11T09:02:01;5.10;;;2.40;;
5831;SDS011;50943;51.448;7.646;2022-08-11T09:04:29;4.15;;;2.20;;
5831;SDS011;50943;51.448;7.646;2022-08-11T09:06:58;5.75;;;1.90;;
5831;SDS011;50943;51.448;7.646;2022-08-11T09:09:27;4.75;;;2.10;;
5831;SDS011;50943;51.448;7.646;2022-08-11T09:11:56;4.80;;;1.95;;
5831;SDS011;50943;51.448;7.646;2022-08-11T09:14:23;2.63;;;2.00;;
5831;SDS011;50943;51.448;7.646;2022-08-11T09:17:12;7.72;;;1.80;;
5831;SDS011;50943;51.448;7.646;2022-08-11T09:19:39;2.03;;;1.80;;
5831;SDS011;50943;51.448;7.646;2022-08-11T09:22:06;5.50;;;2.10;;
5831;SDS011;50943;51.448;7.646;2022-08-11T09:24:50;6.63;;;2.20;;
5831;SDS011;50943;51.448;7.646;2022-08-11T09:27:35;4.43;;;2.07;;
5831;SDS011;50943;51.448;7.646;2022-08-11T09:30:03;4.15;;;2.28;;
5831;SDS011;50943;51.448;7.646;2022-08-11T09:32:31;5.32;;;2.25;;
5831;SDS011;50943;51.448;7.646;2022-08-11T09:34:58;4.37;;;2.00;;
5831;SDS011;50943;51.448;7.646;2022-08-11T09:37:27;7.78;;;2.40;;
5831;SDS011;50943;51.448;7.646;2022-08-11T09:40:13;3.35;;;1.92;;
5831;SDS011;50943;51.448;7.646;2022-08-11T09:42:55;2.85;;;2.22;;
5831;SDS011;50943;51.448;7.646;2022-08-11T09:45:40;4.80;;;2.00;;
5831;SDS011;50943;51.448;7.646;2022-08-11T09:48:11;7.93;;;2.05;;
5831;SDS011;50943;51.448;7.646;2022-08-11T09:50:38;10.45;;;2.40;;
5831;SDS011;50943;51.448;7.646;2022-08-11T09:53:05;5.63;;;2.38;;
5831;SDS011;50943;51.448;7.646;2022-08-11T09:55:33;6.00;;;2.33;;
5831;SDS011;50943;51.448;7.646;2022-08-11T09:57:59;2.97;;;2.28;;
5831;SDS011;50943;51.448;7.646;2022-08-11T10:00:38;6.22;;;1.90;;
5831;SDS011;50943;51.448;7.646;2022-08-11T10:03:05;3.58;;;2.00;;
5831;SDS011;50943;51.448;7.646;2022-08-11T10:05:37;3.60;;;2.15;;
5831;SDS011;50943;51.448;7.646;2022-08-11T10:08:22;5.38;;;2.25;;
5831;SDS011;50943;51.448;7.646;2022-08-11T10:10:52;6.82;;;2.15;;
5831;SDS011;50943;51.448;7.646;2022-08-11T10:13:20;3.90;;;2.08;;
5831;SDS011;50943;51.448;7.646;2022-08-11T10:15:51;3.67;;;2.10;;
5831;SDS011;50943;51.448;7.646;2022-08-11T10:18:21;4.70;;;2.20;;
5831;SDS011;50943;51.448;7.646;2022-08-11T10:21:22;2.53;;;1.98;;
5831;SDS011;50943;51.448;7.646;2022-08-11T10:23:52;3.25;;;2.03;;
5831;SDS011;50943;51.448;7.646;2022-08-11T10:26:42;1.80;;;1.70;;
5831;SDS011;50943;51.448;7.646;2022-08-11T10:29:18;5.78;;;1.90;;
5831;SDS011;50943;51.448;7.646;2022-08-11T10:32:03;4.57;;;2.00;;
5831;SDS011;50943;51.448;7.646;2022-08-11T10:34:48;2.60;;;1.83;;
5831;SDS011;50943;51.448;7.646;2022-08-11T10:37:18;5.43;;;1.92;;
5831;SDS011;50943;51.448;7.646;2022-08-11T10:39:47;7.43;;;2.22;;
5831;SDS011;50943;51.448;7.646;2022-08-11T10:42:14;5.43;;;1.90;;
5831;SDS011;50943;51.448;7.646;2022-08-11T10:44:58;3.22;;;2.33;;
5831;SDS011;50943;51.448;7.646;2022-08-11T10:47:26;3.95;;;2.53;;
5831;SDS011;50943;51.448;7.646;2022-08-11T10:50:03;3.00;;;2.00;;
5831;SDS011;50943;51.448;7.646;2022-08-11T10:52:55;3.22;;;2.33;;
5831;SDS011;50943;51.448;7.646;2022-08-11T10:55:41;2.45;;;2.00;;
5831;SDS011;50943;51.448;7.646;2022-08-11T10:58:26;2.40;;;2.00;;
5831;SDS011;50943;51.448;7.646;2022-08-11T11:01:14;2.90;;;2.22;;
5831;SDS011;50943;51.448;7.646;2022-08-11T11:03:42;3.42;;;2.00;;
5831;SDS011;50943;51.448;7.646;2022-08-11T11:06:14;4.43;;;1.92;;
5831;SDS011;50943;51.448;7.646;2022-08-11T11:08:51;6.28;;;2.42;;
5831;SDS011;50943;51.448;7.646;2022-08-11T11:11:19;4.43;;;2.25;;
5831;SDS011;50943;51.448;7.646;2022-08-11T11:13:48;3.92;;;2.60;;
5831;SDS011;50943;51.448;7.646;2022-08-11T11:16:34;3.38;;;2.15;;
5831;SDS011;50943;51.448;7.646;2022-08-11T11:19:19;8.27;;;2.20;;
5831;SDS011;50943;51.448;7.646;2022-08-11T11:21:51;4.97;;;2.20;;
5831;SDS011;50943;51.448;7.646;2022-08-11T11:24:41;8.43;;;1.95;;
5831;SDS011;50943;51.448;7.646;2022-08-11T11:27:13;6.32;;;2.35;;
5831;SDS011;50943;51.448;7.646;2022-08-11T11:29:50;3.47;;;2.20;;
5831;SDS011;50943;51.448;7.646;2022-08-11T11:32:23;4.43;;;1.95;;
5831;SDS011;50943;51.448;7.646;2022-08-11T11:35:00;6.25;;;2.17;;
5831;SDS011;50943;51.448;7.646;2022-08-11T11:37:33;6.40;;;2.35;;
5831;SDS011;50943;51.448;7.646;2022-08-11T11:40:04;4.07;;;2.70;;
5831;SDS011;50943;51.448;7.646;2022-08-11T11:42:35;3.20;;;1.95;;
5831;SDS011;50943;51.448;7.646;2022-08-11T11:45:03;3.17;;;2.45;;
5831;SDS011;50943;51.448;7.646;2022-08-11T11:47:31;2.63;;;2.40;;
5831;SDS011;50943;51.448;7.646;2022-08-11T11:49:58;5.95;;;5.45;;
5831;SDS011;50943;51.448;7.646;2022-08-11T11:52:25;3.92;;;2.08;;
5831;SDS011;50943;51.448;7.646;2022-08-11T11:54:53;5.78;;;2.53;;
5831;SDS011;50943;51.448;7.646;2022-08-11T11:57:22;7.63;;;2.10;;
5831;SDS011;50943;51.448;7.646;2022-08-11T12:00:08;3.45;;;2.42;;
5831;SDS011;50943;51.448;7.646;2022-08-11T12:02:54;3.67;;;2.05;;
5831;SDS011;50943;51.448;7.646;2022-08-11T12:05:22;2.35;;;1.77;;
5831;SDS011;50943;51.448;7.646;2022-08-11T12:07:49;4.10;;;1.98;;
5831;SDS011;50943;51.448;7.646;2022-08-11T12:10:33;4.30;;;2.50;;
5831;SDS011;50943;51.448;7.646;2022-08-11T12:13:02;4.03;;;1.73;;
5831;SDS011;50943;51.448;7.646;2022-08-11T12:15:46;6.50;;;2.22;;
5831;SDS011;50943;51.448;7.646;2022-08-11T12:18:13;6.32;;;2.22;;
5831;SDS011;50943;51.448;7.646;2022-08-11T12:20:40;5.78;;;2.53;;
5831;SDS011;50943;51.448;7.646;2022-08-11T12:23:07;2.60;;;2.15;;
5831;SDS011;50943;51.448;7.646;2022-08-11T12:25:52;10.20;;;2.20;;
5831;SDS011;50943;51.448;7.646;2022-08-11T12:28:38;4.28;;;1.88;;
5831;SDS011;50943;51.448;7.646;2022-08-11T12:31:05;4.53;;;2.08;;
5831;SDS011;50943;51.448;7.646;2022-08-11T12:33:34;4.88;;;2.08;;
5831;SDS011;50943;51.448;7.646;2022-08-11T12:36:01;2.85;;;1.88;;
5831;SDS011;50943;51.448;7.646;2022-08-11T12:38:28;2.33;;;2.00;;
5831;SDS011;50943;51.448;7.646;2022-08-11T12:40:55;6.60;;;2.10;;
5831;SDS011;50943;51.448;7.646;2022-08-11T12:43:41;12.70;;;2.47;;
5831;SDS011;50943;51.448;7.646;2022-08-11T12:46:30;3.15;;;1.90;;
5831;SDS011;50943;51.448;7.646;2022-08-11T12:48:59;2.25;;;1.92;;
5831;SDS011;50943;51.448;7.646;2022-08-11T12:51:48;4.65;;;1.90;;
5831;SDS011;50943;51.448;7.646;2022-08-11T12:54:25;6.88;;;2.05;;
5831;SDS011;50943;51.448;7.646;2022-08-11T12:56:54;4.82;;;2.13;;
5831;SDS011;50943;51.448;7.646;2022-08-11T12:59:43;2.75;;;1.80;;
5831;SDS011;50943;51.448;7.646;2022-08-11T13:02:28;4.03;;;2.08;;
5831;SDS011;50943;51.448;7.646;2022-08-11T13:05:12;4.90;;;2.20;;
5831;SDS011;50943;51.448;7.646;2022-08-11T13:07:41;3.80;;;2.22;;
5831;SDS011;50943;51.448;7.646;2022-08-11T13:10:09;3.97;;;1.95;;
5831;SDS011;50943;51.448;7.646;2022-08-11T13:12:37;3.15;;;2.05;;
5831;SDS011;50943;51.448;7.646;2022-08-11T13:15:14;4.38;;;1.85;;
5831;SDS011;50943;51.448;7.646;2022-08-11T13:17:42;5.68;;;2.30;;
5831;SDS011;50943;51.448;7.646;2022-08-11T13:20:09;8.52;;;2.15;;
5831;SDS011;50943;51.448;7.646;2022-08-11T13:22:38;3.45;;;2.05;;
5831;SDS011;50943;51.448;7.646;2022-08-11T13:25:05;2.85;;;1.95;;
5831;SDS011;50943;51.448;7.646;2022-08-11T13:27:33;2.10;;;1.90;;
5831;SDS011;50943;51.448;7.646;2022-08-11T13:30:00;3.33;;;2.20;;
5831;SDS011;50943;51.448;7.646;2022-08-11T13:32:47;4.30;;;2.17;;
5831;SDS011;50943;51.448;7.646;2022-08-11T13:35:14;5.15;;;1.85;;
5831;SDS011;50943;51.448;7.646;2022-08-11T13:37:42;4.80;;;2.08;;
5831;SDS011;50943;51.448;7.646;2022-08-11T13:40:10;14.27;;;2.20;;
5831;SDS011;50943;51.448;7.646;2022-08-11T13:42:37;7.72;;;2.30;;
5831;SDS011;50943;51.448;7.646;2022-08-11T13:45:05;3.80;;;1.92;;
5831;SDS011;50943;51.448;7.646;2022-08-11T13:47:33;2.75;;;2.33;;
5831;SDS011;50943;51.448;7.646;2022-08-11T13:50:01;8.02;;;2.28;;
5831;SDS011;50943;51.448;7.646;2022-08-11T13:52:28;6.35;;;2.33;;
5831;SDS011;50943;51.448;7.646;2022-08-11T13:54:55;6.32;;;2.45;;
5831;SDS011;50943;51.448;7.646;2022-08-11T13:57:22;4.90;;;2.05;;
5831;SDS011;50943;51.448;7.646;2022-08-11T13:59:51;6.18;;;2.30;;
5831;SDS011;50943;51.448;7.646;2022-08-11T14:02:20;3.22;;;1.88;;
5831;SDS011;50943;51.448;7.646;2022-08-11T14:04:51;5.80;;;2.13;;
5831;SDS011;50943;51.448;7.646;2022-08-11T14:07:21;7.15;;;2.30;;
5831;SDS011;50943;51.448;7.646;2022-08-11T14:09:52;7.05;;;2.67;;
5831;SDS011;50943;51.448;7.646;2022-08-11T14:12:22;6.32;;;2.40;;
5831;SDS011;50943;51.448;7.646;2022-08-11T14:15:09;7.03;;;2.10;;
5831;SDS011;50943;51.448;7.646;2022-08-11T14:17:44;3.20;;;2.50;;
5831;SDS011;50943;51.448;7.646;2022-08-11T14:20:15;5.87;;;2.50;;
5831;SDS011;50943;51.448;7.646;2022-08-11T14:22:44;4.30;;;2.20;;
5831;SDS011;50943;51.448;7.646;2022-08-11T14:25:10;3.97;;;2.00;;
5831;SDS011;50943;51.448;7.646;2022-08-11T14:27:39;3.03;;;1.90;;
5831;SDS011;50943;51.448;7.646;2022-08-11T14:30:06;5.30;;;2.37;;
5831;SDS011;50943;51.448;7.646;2022-08-11T14:32:54;5.93;;;2.57;;
5831;SDS011;50943;51.448;7.646;2022-08-11T14:35:21;6.43;;;2.30;;
5831;SDS011;50943;51.448;7.646;2022-08-11T14:37:49;4.57;;;2.00;;
5831;SDS011;50943;51.448;7.646;2022-08-11T14:40:15;6.40;;;2.00;;
5831;SDS011;50943;51.448;7.646;2022-08-11T14:42:56;7.23;;;2.20;;
5831;SDS011;50943;51.448;7.646;2022-08-11T14:45:42;7.10;;;2.20;;
5831;SDS011;50943;51.448;7.646;2022-08-11T14:48:27;6.90;;;2.10;;
5831;SDS011;50943;51.448;7.646;2022-08-11T14:50:54;6.50;;;2.00;;
5831;SDS011;50943;51.448;7.646;2022-08-11T14:53:23;4.43;;;2.40;;
5831;SDS011;50943;51.448;7.646;2022-08-11T14:55:50;3.33;;;2.00;;
5831;SDS011;50943;51.448;7.646;2022-08-11T14:58:34;5.53;;;2.60;;
5831;SDS011;50943;51.448;7.646;2022-08-11T15:01:02;5.70;;;2.60;;
5831;SDS011;50943;51.448;7.646;2022-08-11T15:03:50;5.50;;;2.40;;
5831;SDS011;50943;51.448;7.646;2022-08-11T15:06:16;6.30;;;2.53;;
5831;SDS011;50943;51.448;7.646;2022-08-11T15:08:44;4.53;;;2.30;;
5831;SDS011;50943;51.448;7.646;2022-08-11T15:11:21;6.20;;;2.70;;
5831;SDS011;50943;51.448;7.646;2022-08-11T15:14:07;3.23;;;2.53;;
5831;SDS011;50943;51.448;7.646;2022-08-11T15:16:35;6.53;;;2.47;;
5831;SDS011;50943;51.448;7.646;2022-08-11T15:19:21;6.10;;;2.50;;
5831;SDS011;50943;51.448;7.646;2022-08-11T15:21:56;4.30;;;2.97;;
5831;SDS011;50943;51.448;7.646;2022-08-11T15:24:44;3.40;;;2.47;;
5831;SDS011;50943;51.448;7.646;2022-08-11T15:27:11;2.93;;;2.27;;
5831;SDS011;50943;51.448;7.646;2022-08-11T15:29:57;6.40;;;2.77;;
5831;SDS011;50943;51.448;7.646;2022-08-11T15:32:44;5.00;;;2.60;;
5831;SDS011;50943;51.448;7.646;2022-08-11T15:35:29;4.37;;;2.70;;
5831;SDS011;50943;51.448;7.646;2022-08-11T15:38:14;6.93;;;3.30;;
5831;SDS011;50943;51.448;7.646;2022-08-11T15:40:42;4.47;;;2.57;;
5831;SDS011;50943;51.448;7.646;2022-08-11T15:43:27;9.20;;;2.50;;
5831;SDS011;50943;51.448;7.646;2022-08-11T15:46:13;8.63;;;2.80;;
5831;SDS011;50943;51.448;7.646;2022-08-11T15:48:46;5.00;;;2.63;;
5831;SDS011;50943;51.448;7.646;2022-08-11T15:51:15;10.57;;;2.90;;
5831;SDS011;50943;51.448;7.646;2022-08-11T15:53:48;8.30;;;2.97;;
5831;SDS011;50943;51.448;7.646;2022-08-11T15:56:17;3.13;;;2.60;;
5831;SDS011;50943;51.448;7.646;2022-08-11T15:58:46;7.53;;;2.90;;
5831;SDS011;50943;51.448;7.646;2022-08-11T16:01:31;4.80;;;2.90;;
5831;SDS011;50943;51.448;7.646;2022-08-11T16:04:17;5.17;;;3.00;;
5831;SDS011;50943;51.448;7.646;2022-08-11T16:06:47;5.90;;;2.80;;
5831;SDS011;50943;51.448;7.646;2022-08-11T16:09:17;7.87;;;2.83;;
5831;SDS011;50943;51.448;7.646;2022-08-11T16:11:47;5.10;;;2.63;;
5831;SDS011;50943;51.448;7.646;2022-08-11T16:14:15;7.37;;;2.70;;
5831;SDS011;50943;51.448;7.646;2022-08-11T16:17:00;4.17;;;3.10;;
5831;SDS011;50943;51.448;7.646;2022-08-11T16:19:28;4.03;;;3.00;;
5831;SDS011;50943;51.448;7.646;2022-08-11T16:22:00;6.30;;;2.97;;
5831;SDS011;50943;51.448;7.646;2022-08-11T16:24:31;13.67;;;2.87;;
5831;SDS011;50943;51.448;7.646;2022-08-11T16:27:00;4.13;;;2.73;;
5831;SDS011;50943;51.448;7.646;2022-08-11T16:29:27;10.70;;;2.97;;
5831;SDS011;50943;51.448;7.646;2022-08-11T16:31:56;4.20;;;2.70;;
5831;SDS011;50943;51.448;7.646;2022-08-11T16:34:41;3.27;;;2.60;;
5831;SDS011;50943;51.448;7.646;2022-08-11T16:37:26;4.40;;;2.67;;
5831;SDS011;50943;51.448;7.646;2022-08-11T16:40:10;6.30;;;3.00;;
5831;SDS011;50943;51.448;7.646;2022-08-11T16:42:38;5.07;;;2.87;;